sensor_id;sensor_type;location;lat;lon;timestamp;P1;durP1;ratioP1;P2;durP2;ratioP2
8171;SDS011;4127;47.908;10.850;2022-08-30T00:02:08;7.20;;;6.60;;
8171;SDS011;4127;47.908;10.850;2022-08-30T00:04:35;7.33;;;6.63;;
8171;SDS011;4127;47.908;10.850;2022-08-30T00:07:02;7.93;;;7.23;;
8171;SDS011;4127;47.908;10.850;2022-08-30T00:09:30;8.13;;;7.40;;
8171;SDS011;4127;47.908;10.850;2022-08-30T00:11:57;9.03;;;7.27;;
8171;SDS011;4127;47.908;10.850;2022-08-30T00:14:25;7.57;;;6.97;;
8171;SDS011;4127;47.908;10.850;2022-08-30T00:16:52;7.80;;;7.20;;
8171;SDS011;4127;47.908;10.850;2022-08-30T00:19:19;8.20;;;7.50;;
8171;SDS011;4127;47.908;10.850;2022-08-30T00:21:46;8.23;;;7.43;;
8171;SDS011;4127;47.908;10.850;2022-08-30T00:24:13;7.77;;;7.10;;
8171;SDS011;4127;47.908;10.850;2022-08-30T00:26:40;8.13;;;7.53;;
8171;SDS011;4127;47.908;10.850;2022-08-30T00:29:06;8.27;;;7.47;;
8171;SDS011;4127;47.908;10.850;2022-08-30T00:31:33;8.30;;;7.60;;
8171;SDS011;4127;47.908;10.850;2022-08-30T00:34:00;8.00;;;7.30;;
8171;SDS011;4127;47.908;10.850;2022-08-30T00:36:27;7.90;;;7.20;;
8171;SDS011;4127;47.908;10.850;2022-08-30T00:38:54;7.63;;;6.93;;
8171;SDS011;4127;47.908;10.850;2022-08-30T00:41:21;7.77;;;7.07;;
8171;SDS011;4127;47.908;10.850;2022-08-30T00:43:48;7.63;;;7.03;;
8171;SDS011;4127;47.908;10.850;2022-08-30T00:46:14;7.90;;;7.20;;
8171;SDS011;4127;47.908;10.850;2022-08-30T00:48:44;7.43;;;6.67;;
8171;SDS011;4127;47.908;10.850;2022-08-30T00:51:12;7.03;;;6.43;;
8171;SDS011;4127;47.908;10.850;2022-08-30T00:53:42;8.23;;;7.43;;
8171;SDS011;4127;47.908;10.850;2022-08-30T00:56:13;7.97;;;7.20;;
8171;SDS011;4127;47.908;10.850;2022-08-30T00:58:42;7.57;;;6.87;;
8171;SDS011;4127;47.908;10.850;2022-08-30T01:01:15;8.07;;;7.47;;
8171;SDS011;4127;47.908;10.850;2022-08-30T01:03:43;7.97;;;7.17;;
8171;SDS011;4127;47.908;10.850;2022-08-30T01:06:11;7.93;;;7.33;;
8171;SDS011;4127;47.908;10.850;2022-08-30T01:08:41;8.10;;;7.40;;
8171;SDS011;4127;47.908;10.850;2022-08-30T01:11:08;8.60;;;7.90;;
8171;SDS011;4127;47.908;10.850;2022-08-30T01:13:37;8.40;;;7.60;;
8171;SDS011;4127;47.908;10.850;2022-08-30T01:16:04;7.87;;;7.17;;
8171;SDS011;4127;47.908;10.850;2022-08-30T01:18:32;7.20;;;6.60;;
8171;SDS011;4127;47.908;10.850;2022-08-30T01:23:39;8.87;;;8.10;;
8171;SDS011;4127;47.908;10.850;2022-08-30T01:26:09;8.87;;;8.00;;
8171;SDS011;4127;47.908;10.850;2022-08-30T01:28:41;8.47;;;7.67;;
8171;SDS011;4127;47.908;10.850;2022-08-30T01:31:09;8.60;;;7.90;;
8171;SDS011;4127;47.908;10.850;2022-08-30T01:33:36;8.70;;;7.90;;
8171;SDS011;4127;47.908;10.850;2022-08-30T01:36:04;9.57;;;8.67;;
8171;SDS011;4127;47.908;10.850;2022-08-30T01:38:37;8.57;;;7.77;;
8171;SDS011;4127;47.908;10.850;2022-08-30T01:41:15;8.80;;;8.03;;
8171;SDS011;4127;47.908;10.850;2022-08-30T01:43:45;9.00;;;8.30;;
8171;SDS011;4127;47.908;10.850;2022-08-30T01:46:13;9.03;;;8.10;;
8171;SDS011;4127;47.908;10.850;2022-08-30T01:48:42;8.43;;;7.73;;
8171;SDS011;4127;47.908;10.850;2022-08-30T01:51:19;9.03;;;8.23;;
8171;SDS011;4127;47.908;10.850;2022-08-30T01:53:47;8.13;;;7.43;;
8171;SDS011;4127;47.908;10.850;2022-08-30T01:56:14;8.53;;;7.73;;
8171;SDS011;4127;47.908;10.850;2022-08-30T01:58:42;8.20;;;7.50;;
8171;SDS011;4127;47.908;10.850;2022-08-30T02:01:10;8.73;;;8.03;;
8171;SDS011;4127;47.908;10.850;2022-08-30T02:03:40;8.23;;;7.43;;
8171;SDS011;4127;47.908;10.850;2022-08-30T02:06:12;8.80;;;8.10;;
8171;SDS011;4127;47.908;10.850;2022-08-30T02:08:41;9.70;;;8.70;;
8171;SDS011;4127;47.908;10.850;2022-08-30T02:11:09;8.67;;;7.87;;
8171;SDS011;4127;47.908;10.850;2022-08-30T02:13:37;9.40;;;8.50;;
8171;SDS011;4127;47.908;10.850;2022-08-30T02:16:09;9.17;;;8.27;;
8171;SDS011;4127;47.908;10.850;2022-08-30T02:18:38;8.97;;;8.07;;
8171;SDS011;4127;47.908;10.850;2022-08-30T02:21:06;8.90;;;8.07;;
8171;SDS011;4127;47.908;10.850;2022-08-30T02:23:34;7.87;;;7.17;;
8171;SDS011;4127;47.908;10.850;2022-08-30T02:26:01;9.03;;;8.23;;
8171;SDS011;4127;47.908;10.850;2022-08-30T02:28:29;8.47;;;7.77;;
8171;SDS011;4127;47.908;10.850;2022-08-30T02:30:56;8.90;;;8.10;;
8171;SDS011;4127;47.908;10.850;2022-08-30T02:33:23;9.17;;;8.27;;
8171;SDS011;4127;47.908;10.850;2022-08-30T02:35:50;9.23;;;8.30;;
8171;SDS011;4127;47.908;10.850;2022-08-30T02:38:16;9.13;;;8.37;;
8171;SDS011;4127;47.908;10.850;2022-08-30T02:40:45;8.40;;;7.63;;
8171;SDS011;4127;47.908;10.850;2022-08-30T02:43:12;9.80;;;8.00;;
8171;SDS011;4127;47.908;10.850;2022-08-30T02:45:39;8.67;;;7.87;;
8171;SDS011;4127;47.908;10.850;2022-08-30T02:48:07;8.30;;;7.60;;
8171;SDS011;4127;47.908;10.850;2022-08-30T02:50:33;8.40;;;7.60;;
8171;SDS011;4127;47.908;10.850;2022-08-30T02:53:04;9.03;;;8.23;;
8171;SDS011;4127;47.908;10.850;2022-08-30T02:55:31;9.10;;;8.20;;
8171;SDS011;4127;47.908;10.850;2022-08-30T02:57:58;9.13;;;8.33;;
8171;SDS011;4127;47.908;10.850;2022-08-30T03:00:25;8.67;;;7.87;;
8171;SDS011;4127;47.908;10.850;2022-08-30T03:02:52;8.90;;;8.10;;
8171;SDS011;4127;47.908;10.850;2022-08-30T03:05:19;8.40;;;7.70;;
8171;SDS011;4127;47.908;10.850;2022-08-30T03:07:45;8.20;;;7.50;;
8171;SDS011;4127;47.908;10.850;2022-08-30T03:10:13;8.90;;;8.03;;
8171;SDS011;4127;47.908;10.850;2022-08-30T03:12:41;9.07;;;8.27;;
8171;SDS011;4127;47.908;10.850;2022-08-30T03:15:09;8.47;;;7.40;;
8171;SDS011;4127;47.908;10.850;2022-08-30T03:17:40;8.23;;;7.53;;
8171;SDS011;4127;47.908;10.850;2022-08-30T03:20:07;8.40;;;7.80;;
8171;SDS011;4127;47.908;10.850;2022-08-30T03:22:35;8.50;;;7.80;;
8171;SDS011;4127;47.908;10.850;2022-08-30T03:25:02;8.40;;;7.60;;
8171;SDS011;4127;47.908;10.850;2022-08-30T03:27:30;8.30;;;7.60;;
8171;SDS011;4127;47.908;10.850;2022-08-30T03:29:57;8.47;;;7.70;;
8171;SDS011;4127;47.908;10.850;2022-08-30T03:32:24;8.47;;;7.67;;
8171;SDS011;4127;47.908;10.850;2022-08-30T03:34:50;8.00;;;7.40;;
8171;SDS011;4127;47.908;10.850;2022-08-30T03:37:18;9.07;;;8.30;;
8171;SDS011;4127;47.908;10.850;2022-08-30T03:39:50;8.90;;;8.00;;
8171;SDS011;4127;47.908;10.850;2022-08-30T03:42:17;8.80;;;7.60;;
8171;SDS011;4127;47.908;10.850;2022-08-30T03:44:46;9.23;;;8.43;;
8171;SDS011;4127;47.908;10.850;2022-08-30T03:47:13;8.33;;;7.53;;
8171;SDS011;4127;47.908;10.850;2022-08-30T03:49:40;8.10;;;7.30;;
8171;SDS011;4127;47.908;10.850;2022-08-30T03:52:07;8.67;;;7.90;;
8171;SDS011;4127;47.908;10.850;2022-08-30T03:54:34;7.87;;;7.17;;
8171;SDS011;4127;47.908;10.850;2022-08-30T03:57:03;8.47;;;7.73;;
8171;SDS011;4127;47.908;10.850;2022-08-30T03:59:30;9.97;;;8.60;;
8171;SDS011;4127;47.908;10.850;2022-08-30T04:01:57;8.67;;;7.90;;
8171;SDS011;4127;47.908;10.850;2022-08-30T04:04:24;9.40;;;8.40;;
8171;SDS011;4127;47.908;10.850;2022-08-30T04:06:52;8.80;;;8.03;;
8171;SDS011;4127;47.908;10.850;2022-08-30T04:09:19;9.07;;;8.27;;
8171;SDS011;4127;47.908;10.850;2022-08-30T04:11:45;9.20;;;8.03;;
8171;SDS011;4127;47.908;10.850;2022-08-30T04:14:12;8.97;;;8.13;;
8171;SDS011;4127;47.908;10.850;2022-08-30T04:16:39;9.63;;;8.83;;
8171;SDS011;4127;47.908;10.850;2022-08-30T04:19:06;9.00;;;8.20;;
8171;SDS011;4127;47.908;10.850;2022-08-30T04:21:33;9.43;;;8.63;;
8171;SDS011;4127;47.908;10.850;2022-08-30T04:24:08;9.13;;;8.33;;
8171;SDS011;4127;47.908;10.850;2022-08-30T04:26:36;9.07;;;8.27;;
8171;SDS011;4127;47.908;10.850;2022-08-30T04:29:03;8.83;;;8.03;;
8171;SDS011;4127;47.908;10.850;2022-08-30T04:31:30;9.40;;;8.60;;
8171;SDS011;4127;47.908;10.850;2022-08-30T04:33:57;10.73;;;8.40;;
8171;SDS011;4127;47.908;10.850;2022-08-30T04:36:24;9.07;;;8.27;;
8171;SDS011;4127;47.908;10.850;2022-08-30T04:38:51;8.30;;;7.60;;
8171;SDS011;4127;47.908;10.850;2022-08-30T04:41:18;8.53;;;7.83;;
8171;SDS011;4127;47.908;10.850;2022-08-30T04:43:47;8.80;;;8.10;;
8171;SDS011;4127;47.908;10.850;2022-08-30T04:46:16;8.53;;;7.83;;
8171;SDS011;4127;47.908;10.850;2022-08-30T04:48:44;7.80;;;7.13;;
8171;SDS011;4127;47.908;10.850;2022-08-30T04:51:13;8.60;;;7.90;;
8171;SDS011;4127;47.908;10.850;2022-08-30T04:53:42;9.20;;;8.40;;
8171;SDS011;4127;47.908;10.850;2022-08-30T04:56:11;9.67;;;8.77;;
8171;SDS011;4127;47.908;10.850;2022-08-30T04:58:43;9.03;;;8.27;;
8171;SDS011;4127;47.908;10.850;2022-08-30T05:01:12;9.00;;;8.10;;
8171;SDS011;4127;47.908;10.850;2022-08-30T05:03:44;9.07;;;8.17;;
8171;SDS011;4127;47.908;10.850;2022-08-30T05:06:11;10.17;;;9.27;;
8171;SDS011;4127;47.908;10.850;2022-08-30T05:08:38;9.30;;;8.40;;
8171;SDS011;4127;47.908;10.850;2022-08-30T05:11:11;10.60;;;9.60;;
8171;SDS011;4127;47.908;10.850;2022-08-30T05:13:38;9.63;;;8.83;;
8171;SDS011;4127;47.908;10.850;2022-08-30T05:16:05;10.37;;;9.47;;
8171;SDS011;4127;47.908;10.850;2022-08-30T05:18:34;10.60;;;9.70;;
8171;SDS011;4127;47.908;10.850;2022-08-30T05:23:33;8.37;;;7.67;;
8171;SDS011;4127;47.908;10.850;2022-08-30T05:26:08;9.20;;;8.40;;
8171;SDS011;4127;47.908;10.850;2022-08-30T05:28:40;9.50;;;8.70;;
8171;SDS011;4127;47.908;10.850;2022-08-30T05:31:28;9.00;;;8.30;;
8171;SDS011;4127;47.908;10.850;2022-08-30T05:33:57;9.00;;;8.20;;
8171;SDS011;4127;47.908;10.850;2022-08-30T05:36:26;8.63;;;7.83;;
8171;SDS011;4127;47.908;10.850;2022-08-30T05:38:56;9.57;;;8.67;;
8171;SDS011;4127;47.908;10.850;2022-08-30T05:41:24;9.00;;;8.20;;
8171;SDS011;4127;47.908;10.850;2022-08-30T05:43:53;8.33;;;7.63;;
8171;SDS011;4127;47.908;10.850;2022-08-30T05:46:21;8.70;;;7.97;;
8171;SDS011;4127;47.908;10.850;2022-08-30T05:48:49;8.63;;;7.83;;
8171;SDS011;4127;47.908;10.850;2022-08-30T05:51:18;8.77;;;8.00;;
8171;SDS011;4127;47.908;10.850;2022-08-30T05:53:48;8.43;;;7.73;;
8171;SDS011;4127;47.908;10.850;2022-08-30T05:56:17;8.40;;;7.70;;
8171;SDS011;4127;47.908;10.850;2022-08-30T05:58:50;8.23;;;7.60;;
8171;SDS011;4127;47.908;10.850;2022-08-30T06:01:27;8.20;;;7.57;;
8171;SDS011;4127;47.908;10.850;2022-08-30T06:03:59;8.10;;;7.40;;
8171;SDS011;4127;47.908;10.850;2022-08-30T06:06:30;8.03;;;7.23;;
8171;SDS011;4127;47.908;10.850;2022-08-30T06:08:58;8.20;;;7.40;;
8171;SDS011;4127;47.908;10.850;2022-08-30T06:11:25;8.73;;;8.03;;
8171;SDS011;4127;47.908;10.850;2022-08-30T06:13:53;8.17;;;7.47;;
8171;SDS011;4127;47.908;10.850;2022-08-30T06:16:21;8.23;;;7.50;;
8171;SDS011;4127;47.908;10.850;2022-08-30T06:18:50;7.53;;;6.80;;
8171;SDS011;4127;47.908;10.850;2022-08-30T06:21:19;6.93;;;6.43;;
8171;SDS011;4127;47.908;10.850;2022-08-30T06:23:47;8.07;;;7.37;;
8171;SDS011;4127;47.908;10.850;2022-08-30T06:26:15;8.63;;;7.83;;
8171;SDS011;4127;47.908;10.850;2022-08-30T06:28:42;8.37;;;7.63;;
8171;SDS011;4127;47.908;10.850;2022-08-30T06:31:10;7.23;;;6.53;;
8171;SDS011;4127;47.908;10.850;2022-08-30T06:33:38;7.53;;;6.93;;
8171;SDS011;4127;47.908;10.850;2022-08-30T06:36:06;8.53;;;7.83;;
8171;SDS011;4127;47.908;10.850;2022-08-30T06:38:36;10.37;;;9.37;;
8171;SDS011;4127;47.908;10.850;2022-08-30T06:41:06;9.60;;;8.70;;
8171;SDS011;4127;47.908;10.850;2022-08-30T06:43:38;9.27;;;8.40;;
8171;SDS011;4127;47.908;10.850;2022-08-30T06:46:06;10.20;;;9.30;;
8171;SDS011;4127;47.908;10.850;2022-08-30T06:48:35;11.13;;;10.10;;
8171;SDS011;4127;47.908;10.850;2022-08-30T06:51:02;9.27;;;8.50;;
8171;SDS011;4127;47.908;10.850;2022-08-30T06:53:29;10.50;;;9.50;;
8171;SDS011;4127;47.908;10.850;2022-08-30T06:56:01;10.50;;;9.50;;
8171;SDS011;4127;47.908;10.850;2022-08-30T06:58:32;11.27;;;10.13;;
8171;SDS011;4127;47.908;10.850;2022-08-30T07:01:00;10.80;;;9.80;;
8171;SDS011;4127;47.908;10.850;2022-08-30T07:03:27;11.13;;;10.13;;
8171;SDS011;4127;47.908;10.850;2022-08-30T07:05:54;11.50;;;10.40;;
8171;SDS011;4127;47.908;10.850;2022-08-30T07:08:22;10.87;;;9.83;;
8171;SDS011;4127;47.908;10.850;2022-08-30T07:10:50;10.63;;;9.60;;
8171;SDS011;4127;47.908;10.850;2022-08-30T07:13:20;10.50;;;9.60;;
8171;SDS011;4127;47.908;10.850;2022-08-30T07:15:49;10.30;;;9.40;;
8171;SDS011;4127;47.908;10.850;2022-08-30T07:18:17;10.67;;;9.60;;
8171;SDS011;4127;47.908;10.850;2022-08-30T07:21:06;10.50;;;9.57;;
8171;SDS011;4127;47.908;10.850;2022-08-30T07:23:35;8.90;;;8.10;;
8171;SDS011;4127;47.908;10.850;2022-08-30T07:26:03;8.80;;;7.90;;
8171;SDS011;4127;47.908;10.850;2022-08-30T07:28:31;8.47;;;7.77;;
8171;SDS011;4127;47.908;10.850;2022-08-30T07:30:59;9.10;;;7.73;;
8171;SDS011;4127;47.908;10.850;2022-08-30T07:33:25;7.97;;;7.37;;
8171;SDS011;4127;47.908;10.850;2022-08-30T07:35:52;8.03;;;7.33;;
8171;SDS011;4127;47.908;10.850;2022-08-30T07:38:19;7.53;;;6.93;;
8171;SDS011;4127;47.908;10.850;2022-08-30T07:40:46;7.93;;;7.23;;
8171;SDS011;4127;47.908;10.850;2022-08-30T07:43:13;8.27;;;7.47;;
8171;SDS011;4127;47.908;10.850;2022-08-30T07:45:40;7.57;;;6.97;;
8171;SDS011;4127;47.908;10.850;2022-08-30T07:48:06;6.87;;;6.30;;
8171;SDS011;4127;47.908;10.850;2022-08-30T07:50:36;7.57;;;6.97;;
8171;SDS011;4127;47.908;10.850;2022-08-30T07:53:04;7.37;;;6.77;;
8171;SDS011;4127;47.908;10.850;2022-08-30T07:55:35;7.13;;;6.60;;
8171;SDS011;4127;47.908;10.850;2022-08-30T07:58:02;7.00;;;6.50;;
8171;SDS011;4127;47.908;10.850;2022-08-30T08:00:29;6.90;;;6.40;;
8171;SDS011;4127;47.908;10.850;2022-08-30T08:02:56;7.87;;;7.23;;
8171;SDS011;4127;47.908;10.850;2022-08-30T08:05:23;6.53;;;6.03;;
8171;SDS011;4127;47.908;10.850;2022-08-30T08:07:50;6.87;;;6.37;;
8171;SDS011;4127;47.908;10.850;2022-08-30T08:10:17;6.97;;;6.37;;
8171;SDS011;4127;47.908;10.850;2022-08-30T08:12:44;7.47;;;6.87;;
8171;SDS011;4127;47.908;10.850;2022-08-30T08:15:12;8.23;;;7.40;;
8171;SDS011;4127;47.908;10.850;2022-08-30T08:17:38;6.87;;;6.27;;
8171;SDS011;4127;47.908;10.850;2022-08-30T08:20:05;7.33;;;6.50;;
8171;SDS011;4127;47.908;10.850;2022-08-30T08:22:32;7.40;;;6.70;;
8171;SDS011;4127;47.908;10.850;2022-08-30T08:25:05;7.13;;;6.53;;
8171;SDS011;4127;47.908;10.850;2022-08-30T08:27:32;7.27;;;6.63;;
8171;SDS011;4127;47.908;10.850;2022-08-30T08:29:58;6.53;;;6.00;;
8171;SDS011;4127;47.908;10.850;2022-08-30T08:32:26;6.43;;;5.93;;
8171;SDS011;4127;47.908;10.850;2022-08-30T08:34:52;6.90;;;6.30;;
8171;SDS011;4127;47.908;10.850;2022-08-30T08:37:19;6.80;;;6.10;;
8171;SDS011;4127;47.908;10.850;2022-08-30T08:39:52;6.77;;;6.17;;
8171;SDS011;4127;47.908;10.850;2022-08-30T08:44:59;5.78;;;5.28;;
8171;SDS011;4127;47.908;10.850;2022-08-30T08:50:20;6.28;;;5.60;;
8171;SDS011;4127;47.908;10.850;2022-08-30T08:56:12;5.90;;;5.05;;
8171;SDS011;4127;47.908;10.850;2022-08-30T08:58:45;5.32;;;4.90;;
8171;SDS011;4127;47.908;10.850;2022-08-30T09:01:18;5.90;;;5.40;;
8171;SDS011;4127;47.908;10.850;2022-08-30T09:03:48;6.25;;;5.65;;
8171;SDS011;4127;47.908;10.850;2022-08-30T09:08:47;6.03;;;5.53;;
8171;SDS011;4127;47.908;10.850;2022-08-30T09:11:22;4.90;;;4.50;;
8171;SDS011;4127;47.908;10.850;2022-08-30T09:13:52;5.88;;;5.47;;
8171;SDS011;4127;47.908;10.850;2022-08-30T09:19:29;5.57;;;5.18;;
8171;SDS011;4127;47.908;10.850;2022-08-30T09:22:01;5.65;;;5.10;;
8171;SDS011;4127;47.908;10.850;2022-08-30T09:24:49;5.60;;;4.25;;
8171;SDS011;4127;47.908;10.850;2022-08-30T09:27:30;5.75;;;5.15;;
8171;SDS011;4127;47.908;10.850;2022-08-30T09:32:49;5.45;;;4.95;;
8171;SDS011;4127;47.908;10.850;2022-08-30T09:35:41;5.35;;;4.85;;
8171;SDS011;4127;47.908;10.850;2022-08-30T09:38:16;4.47;;;4.18;;
8171;SDS011;4127;47.908;10.850;2022-08-30T09:40:45;4.93;;;4.53;;
8171;SDS011;4127;47.908;10.850;2022-08-30T09:54:02;4.97;;;4.47;;
8171;SDS011;4127;47.908;10.850;2022-08-30T09:56:50;4.65;;;4.13;;
8171;SDS011;4127;47.908;10.850;2022-08-30T10:00:02;4.70;;;4.30;;
8171;SDS011;4127;47.908;10.850;2022-08-30T10:16:28;4.75;;;4.35;;
8171;SDS011;4127;47.908;10.850;2022-08-30T10:19:13;5.07;;;4.60;;
8171;SDS011;4127;47.908;10.850;2022-08-30T10:21:59;4.78;;;4.43;;
8171;SDS011;4127;47.908;10.850;2022-08-30T10:24:33;4.45;;;4.03;;
8171;SDS011;4127;47.908;10.850;2022-08-30T10:27:15;4.57;;;4.15;;
8171;SDS011;4127;47.908;10.850;2022-08-30T10:32:23;4.78;;;4.38;;
8171;SDS011;4127;47.908;10.850;2022-08-30T10:35:03;4.60;;;4.05;;
8171;SDS011;4127;47.908;10.850;2022-08-30T10:38:34;4.63;;;4.22;;
8171;SDS011;4127;47.908;10.850;2022-08-30T10:40:45;4.32;;;4.03;;
8171;SDS011;4127;47.908;10.850;2022-08-30T10:43:42;4.50;;;4.10;;
8171;SDS011;4127;47.908;10.850;2022-08-30T10:47:01;3.88;;;3.55;;
8171;SDS011;4127;47.908;10.850;2022-08-30T10:49:09;4.25;;;3.85;;
8171;SDS011;4127;47.908;10.850;2022-08-30T10:51:43;4.43;;;4.03;;
8171;SDS011;4127;47.908;10.850;2022-08-30T10:54:17;4.15;;;3.85;;
8171;SDS011;4127;47.908;10.850;2022-08-30T10:56:49;4.05;;;3.65;;
8171;SDS011;4127;47.908;10.850;2022-08-30T10:59:17;4.30;;;4.00;;
8171;SDS011;4127;47.908;10.850;2022-08-30T11:07:41;4.07;;;3.67;;
8171;SDS011;4127;47.908;10.850;2022-08-30T11:13:10;3.63;;;3.33;;
8171;SDS011;4127;47.908;10.850;2022-08-30T11:15:51;4.28;;;3.70;;
8171;SDS011;4127;47.908;10.850;2022-08-30T11:18:28;4.47;;;4.10;;
8171;SDS011;4127;47.908;10.850;2022-08-30T11:24:20;4.85;;;3.80;;
8171;SDS011;4127;47.908;10.850;2022-08-30T11:32:17;3.88;;;3.58;;
8171;SDS011;4127;47.908;10.850;2022-08-30T11:37:30;4.30;;;3.90;;
8171;SDS011;4127;47.908;10.850;2022-08-30T11:42:43;4.80;;;4.40;;
8171;SDS011;4127;47.908;10.850;2022-08-30T12:01:44;4.55;;;4.15;;
8171;SDS011;4127;47.908;10.850;2022-08-30T12:06:52;4.55;;;4.15;;
8171;SDS011;4127;47.908;10.850;2022-08-30T12:14:51;4.32;;;4.00;;
8171;SDS011;4127;47.908;10.850;2022-08-30T12:17:24;4.00;;;3.70;;
8171;SDS011;4127;47.908;10.850;2022-08-30T12:20:27;4.38;;;4.07;;
8171;SDS011;4127;47.908;10.850;2022-08-30T12:23:19;3.90;;;3.60;;
8171;SDS011;4127;47.908;10.850;2022-08-30T12:25:49;3.80;;;3.50;;
8171;SDS011;4127;47.908;10.850;2022-08-30T12:28:36;4.28;;;3.88;;
8171;SDS011;4127;47.908;10.850;2022-08-30T12:31:10;4.30;;;3.90;;
8171;SDS011;4127;47.908;10.850;2022-08-30T12:33:43;4.47;;;4.18;;
8171;SDS011;4127;47.908;10.850;2022-08-30T12:36:22;4.30;;;3.90;;
8171;SDS011;4127;47.908;10.850;2022-08-30T12:39:10;4.90;;;4.15;;
8171;SDS011;4127;47.908;10.850;2022-08-30T12:41:40;4.90;;;4.05;;
8171;SDS011;4127;47.908;10.850;2022-08-30T12:44:14;5.05;;;4.10;;
8171;SDS011;4127;47.908;10.850;2022-08-30T12:46:44;4.70;;;4.30;;
8171;SDS011;4127;47.908;10.850;2022-08-30T12:49:18;3.75;;;3.55;;
8171;SDS011;4127;47.908;10.850;2022-08-30T12:51:48;5.05;;;3.80;;
8171;SDS011;4127;47.908;10.850;2022-08-30T12:54:23;4.05;;;3.75;;
8171;SDS011;4127;47.908;10.850;2022-08-30T12:56:59;4.30;;;3.90;;
8171;SDS011;4127;47.908;10.850;2022-08-30T12:59:52;4.60;;;4.10;;
8171;SDS011;4127;47.908;10.850;2022-08-30T13:02:41;4.53;;;4.13;;
8171;SDS011;4127;47.908;10.850;2022-08-30T13:11:02;4.40;;;4.00;;
8171;SDS011;4127;47.908;10.850;2022-08-30T13:13:38;4.53;;;4.10;;
8171;SDS011;4127;47.908;10.850;2022-08-30T13:16:11;4.15;;;3.85;;
8171;SDS011;4127;47.908;10.850;2022-08-30T13:18:49;5.18;;;4.72;;
8171;SDS011;4127;47.908;10.850;2022-08-30T13:21:25;4.00;;;3.70;;
8171;SDS011;4127;47.908;10.850;2022-08-30T13:23:58;3.97;;;3.58;;
8171;SDS011;4127;47.908;10.850;2022-08-30T13:26:27;4.20;;;3.85;;
8171;SDS011;4127;47.908;10.850;2022-08-30T13:28:57;4.10;;;3.80;;
8171;SDS011;4127;47.908;10.850;2022-08-30T13:31:27;4.57;;;4.10;;
8171;SDS011;4127;47.908;10.850;2022-08-30T13:33:56;4.53;;;4.13;;
8171;SDS011;4127;47.908;10.850;2022-08-30T13:36:29;4.72;;;4.07;;
8171;SDS011;4127;47.908;10.850;2022-08-30T13:38:59;4.32;;;4.00;;
8171;SDS011;4127;47.908;10.850;2022-08-30T13:41:27;3.78;;;3.47;;
8171;SDS011;4127;47.908;10.850;2022-08-30T13:43:59;4.13;;;3.83;;
8171;SDS011;4127;47.908;10.850;2022-08-30T13:46:37;3.92;;;3.63;;
8171;SDS011;4127;47.908;10.850;2022-08-30T13:49:07;4.47;;;4.18;;
8171;SDS011;4127;47.908;10.850;2022-08-30T13:52:06;4.50;;;4.10;;
8171;SDS011;4127;47.908;10.850;2022-08-30T13:54:53;4.78;;;4.38;;
8171;SDS011;4127;47.908;10.850;2022-08-30T13:57:23;4.70;;;4.30;;
8171;SDS011;4127;47.908;10.850;2022-08-30T14:00:13;4.50;;;4.10;;
8171;SDS011;4127;47.908;10.850;2022-08-30T14:02:44;5.07;;;4.57;;
8171;SDS011;4127;47.908;10.850;2022-08-30T14:05:27;4.25;;;3.95;;
8171;SDS011;4127;47.908;10.850;2022-08-30T14:08:17;4.00;;;3.70;;
8171;SDS011;4127;47.908;10.850;2022-08-30T14:11:10;4.10;;;3.80;;
8171;SDS011;4127;47.908;10.850;2022-08-30T14:13:41;4.57;;;4.20;;
8171;SDS011;4127;47.908;10.850;2022-08-30T14:16:29;4.53;;;4.13;;
8171;SDS011;4127;47.908;10.850;2022-08-30T14:18:57;4.57;;;4.18;;
8171;SDS011;4127;47.908;10.850;2022-08-30T14:21:25;4.38;;;3.97;;
8171;SDS011;4127;47.908;10.850;2022-08-30T14:23:53;4.72;;;4.22;;
8171;SDS011;4127;47.908;10.850;2022-08-30T14:26:29;5.18;;;4.38;;
8171;SDS011;4127;47.908;10.850;2022-08-30T14:28:59;4.55;;;4.15;;
8171;SDS011;4127;47.908;10.850;2022-08-30T14:31:27;4.65;;;4.35;;
8171;SDS011;4127;47.908;10.850;2022-08-30T14:33:58;4.78;;;4.18;;
8171;SDS011;4127;47.908;10.850;2022-08-30T14:36:25;4.35;;;3.95;;
8171;SDS011;4127;47.908;10.850;2022-08-30T14:38:51;4.80;;;4.35;;
8171;SDS011;4127;47.908;10.850;2022-08-30T14:41:18;4.20;;;3.90;;
8171;SDS011;4127;47.908;10.850;2022-08-30T14:43:45;4.47;;;4.07;;
8171;SDS011;4127;47.908;10.850;2022-08-30T14:46:12;4.90;;;4.50;;
8171;SDS011;4127;47.908;10.850;2022-08-30T14:48:39;4.50;;;4.20;;
8171;SDS011;4127;47.908;10.850;2022-08-30T14:51:12;4.63;;;4.22;;
8171;SDS011;4127;47.908;10.850;2022-08-30T14:53:40;4.82;;;4.43;;
8171;SDS011;4127;47.908;10.850;2022-08-30T14:56:09;4.30;;;3.90;;
8171;SDS011;4127;47.908;10.850;2022-08-30T14:58:37;4.25;;;3.88;;
8171;SDS011;4127;47.908;10.850;2022-08-30T15:01:05;4.30;;;3.90;;
8171;SDS011;4127;47.908;10.850;2022-08-30T15:03:38;4.43;;;4.03;;
8171;SDS011;4127;47.908;10.850;2022-08-30T15:06:06;4.60;;;4.20;;
8171;SDS011;4127;47.908;10.850;2022-08-30T15:08:34;4.53;;;4.20;;
8171;SDS011;4127;47.908;10.850;2022-08-30T15:11:08;4.65;;;4.25;;
8171;SDS011;4127;47.908;10.850;2022-08-30T15:13:37;4.22;;;3.92;;
8171;SDS011;4127;47.908;10.850;2022-08-30T15:16:15;4.60;;;4.20;;
8171;SDS011;4127;47.908;10.850;2022-08-30T15:18:44;4.72;;;4.28;;
8171;SDS011;4127;47.908;10.850;2022-08-30T15:21:11;4.32;;;3.95;;
8171;SDS011;4127;47.908;10.850;2022-08-30T15:23:39;4.47;;;4.07;;
8171;SDS011;4127;47.908;10.850;2022-08-30T15:26:06;4.13;;;3.83;;
8171;SDS011;4127;47.908;10.850;2022-08-30T15:28:35;4.55;;;4.15;;
8171;SDS011;4127;47.908;10.850;2022-08-30T15:31:02;4.15;;;3.80;;
8171;SDS011;4127;47.908;10.850;2022-08-30T15:33:34;4.40;;;4.00;;
8171;SDS011;4127;47.908;10.850;2022-08-30T15:36:02;4.28;;;3.97;;
8171;SDS011;4127;47.908;10.850;2022-08-30T15:38:30;4.10;;;3.78;;
8171;SDS011;4127;47.908;10.850;2022-08-30T15:41:00;4.40;;;4.10;;
8171;SDS011;4127;47.908;10.850;2022-08-30T15:43:29;4.10;;;3.72;;
8171;SDS011;4127;47.908;10.850;2022-08-30T15:46:13;4.30;;;4.00;;
8171;SDS011;4127;47.908;10.850;2022-08-30T15:48:40;4.22;;;3.92;;
8171;SDS011;4127;47.908;10.850;2022-08-30T15:51:11;5.70;;;4.18;;
8171;SDS011;4127;47.908;10.850;2022-08-30T15:53:38;4.93;;;4.53;;
8171;SDS011;4127;47.908;10.850;2022-08-30T15:56:07;4.10;;;3.80;;
8171;SDS011;4127;47.908;10.850;2022-08-30T15:58:38;5.38;;;4.20;;
8171;SDS011;4127;47.908;10.850;2022-08-30T16:01:06;4.93;;;4.38;;
8171;SDS011;4127;47.908;10.850;2022-08-30T16:03:34;4.45;;;4.05;;
8171;SDS011;4127;47.908;10.850;2022-08-30T16:06:03;5.03;;;4.63;;
8171;SDS011;4127;47.908;10.850;2022-08-30T16:08:29;5.70;;;4.40;;
8171;SDS011;4127;47.908;10.850;2022-08-30T16:10:56;4.03;;;3.72;;
8171;SDS011;4127;47.908;10.850;2022-08-30T16:13:23;5.00;;;4.60;;
8171;SDS011;4127;47.908;10.850;2022-08-30T16:15:50;5.90;;;5.40;;
8171;SDS011;4127;47.908;10.850;2022-08-30T16:18:17;4.93;;;4.47;;
8171;SDS011;4127;47.908;10.850;2022-08-30T16:20:44;4.80;;;4.40;;
8171;SDS011;4127;47.908;10.850;2022-08-30T16:23:10;4.85;;;4.45;;
8171;SDS011;4127;47.908;10.850;2022-08-30T16:25:37;5.35;;;4.85;;
8171;SDS011;4127;47.908;10.850;2022-08-30T16:28:06;4.78;;;4.38;;
8171;SDS011;4127;47.908;10.850;2022-08-30T16:30:34;7.32;;;4.50;;
8171;SDS011;4127;47.908;10.850;2022-08-30T16:33:02;4.80;;;4.25;;
8171;SDS011;4127;47.908;10.850;2022-08-30T16:35:31;5.03;;;4.50;;
8171;SDS011;4127;47.908;10.850;2022-08-30T16:37:57;5.00;;;4.50;;
8171;SDS011;4127;47.908;10.850;2022-08-30T16:40:24;4.97;;;4.50;;
8171;SDS011;4127;47.908;10.850;2022-08-30T16:42:51;4.97;;;4.00;;
8171;SDS011;4127;47.908;10.850;2022-08-30T16:45:18;4.60;;;4.18;;
8171;SDS011;4127;47.908;10.850;2022-08-30T16:47:45;4.45;;;4.05;;
8171;SDS011;4127;47.908;10.850;2022-08-30T16:50:12;4.90;;;4.50;;
8171;SDS011;4127;47.908;10.850;2022-08-30T16:52:43;5.15;;;4.65;;
8171;SDS011;4127;47.908;10.850;2022-08-30T16:55:09;5.25;;;4.75;;
8171;SDS011;4127;47.908;10.850;2022-08-30T16:57:38;4.80;;;4.30;;
8171;SDS011;4127;47.908;10.850;2022-08-30T17:00:05;4.32;;;3.92;;
8171;SDS011;4127;47.908;10.850;2022-08-30T17:02:38;4.50;;;4.03;;
8171;SDS011;4127;47.908;10.850;2022-08-30T17:05:20;4.30;;;3.90;;